Terminal Aerodrome Forecast
Issued by NWS

Home | Current Version | Previous Version | Text Only | Print | Product List | Glossary Off
Versions: 1 2 3 4 5 6 7 8 9 10 11 12 13 14 15 16

483
FTUS43 KFGF 160532
TAFBJI
TAF
KBJI 160532Z 1606/1706 33006KT P6SM -SN OVC009
     FM160800 33006KT P6SM BKN015
     FM161000 32005KT P6SM SCT250
     FM170400 23008KT P6SM SCT250=

USA.gov is the U.S. government's official web portal to all federal, state and local government web resources and services.